Terminal Aerodrome Forecast
Issued by NWS

Home | Current Version | Previous Version | Text Only | Print | Product List | Glossary On
Versions: 1 2 3 4 5 6 7 8 9 10 11 12
051
FTUS45 KTFX 221120
TAFLWT
TAF
KLWT 221120Z 2212/2312 12007KT P6SM SKC
     FM221700 10012KT P6SM SCT050
     FM222100 10014KT P6SM VCTS SCT050CB BKN090
     FM230200 09006KT P6SM BKN090=

USA.gov is the U.S. government's official web portal to all federal, state and local government web resources and services.